KADG/ADG METAR and TAF weather

Enter ICAO airport designator
Station Type Date Time Source
KADG METAR 2022/06/30 00:53 UTC NOAA

KADG 300053Z AUTO 18003KT 10SM FEW070 26/18 A3015 RMK AO2 SLP207 T02560178


Station Type Date Time Source
KADG Decoded METAR 2022/06/30 00:53 UTC NOAA

ADRIAN LENAWEE COUNTY AIRPORT, MI, United States (KADG) 41-52N 84-05W 241M
Jun 29, 2022 - 08:53 PM EDT / 2022.06.30 0053 UTC
Wind: from the S (180 degrees) at 3 MPH (3 KT):0
Visibility: 10 mile(s):0
Sky conditions: mostly clear
Temperature: 78.1 F (25.6 C)
Dew Point: 64.0 F (17.8 C)
Relative Humidity: 62%
Pressure (altimeter): 30.15 in. Hg (1020 hPa)
ob: KADG 300053Z AUTO 18003KT 10SM FEW070 26/18 A3015 RMK AO2 SLP207 T02560178
cycle: 1

Station Type Date Time Source
KADG TAF UTC NOAA

Error!

Example: see airport list